Time;durP1;ratioP1;P1;durP2;ratioP2;P2;SDS_P1;SDS_P2;PMS_P1;PMS_P2;Temp;Humidity;BMP_temperature;BMP_pressure;BME280_temperature;BME280_humidity;BME280_pressure;Samples;Min_cycle;Max_cycle;Signal;HPM_P1;HPM_P2
2023/10/27 00:01:50;;;;;;;5.40;2.22;;;;;;;;;;5073464;28;20074;-87
2023/10/27 00:04:39;;;;;;;3.85;1.90;;;;;;;;;;5087644;28;20043;-88
2023/10/27 00:07:24;;;;;;;6.80;2.25;;;;;;;;;;5084687;28;20024;-88
2023/10/27 00:10:09;;;;;;;6.13;2.08;;;;;;;;;;5088505;28;20075;-88
2023/10/27 00:12:55;;;;;;;4.78;1.90;;;;;;;;;;5086554;28;20424;-88
2023/10/27 00:15:40;;;;;;;9.95;1.92;;;;;;;;;;5076534;28;20040;-88
2023/10/27 00:18:25;;;;;;;6.82;2.03;;;;;;;;;;5085463;28;20039;-87
2023/10/27 00:21:10;;;;;;;7.20;1.77;;;;;;;;;;5092166;28;20028;-88
2023/10/27 00:23:56;;;;;;;4.60;1.73;;;;;;;;;;5078718;28;20031;-87
2023/10/27 00:26:41;;;;;;;6.38;1.92;;;;;;;;;;5091832;28;20039;-88
2023/10/27 00:29:26;;;;;;;4.30;1.90;;;;;;;;;;5076703;28;20025;-87
2023/10/27 00:32:11;;;;;;;6.10;1.92;;;;;;;;;;5088004;28;20024;-87
2023/10/27 00:34:57;;;;;;;9.25;2.40;;;;;;;;;;5078100;28;20078;-86
2023/10/27 00:37:42;;;;;;;5.43;2.35;;;;;;;;;;5090823;28;20436;-86
2023/10/27 00:40:27;;;;;;;5.68;2.42;;;;;;;;;;5091128;28;20211;-88
2023/10/27 00:43:13;;;;;;;5.28;2.80;;;;;;;;;;5083964;28;20038;-88
2023/10/27 00:45:59;;;;;;;5.78;2.78;;;;;;;;;;5092309;28;20077;-88
2023/10/27 00:48:44;;;;;;;8.70;1.98;;;;;;;;;;5092377;28;20402;-87
2023/10/27 00:51:29;;;;;;;5.20;1.60;;;;;;;;;;5071559;28;20088;-88
2023/10/27 00:54:16;;;;;;;3.63;1.70;;;;;;;;;;5092090;28;20031;-87
2023/10/27 00:57:02;;;;;;;8.48;1.83;;;;;;;;;;5084259;28;20028;-86
2023/10/27 00:59:47;;;;;;;5.63;1.83;;;;;;;;;;5075181;28;20031;-87
2023/10/27 01:02:32;;;;;;;5.07;1.92;;;;;;;;;;5088219;28;20437;-85
2023/10/27 01:05:17;;;;;;;4.88;1.67;;;;;;;;;;5089005;28;20093;-85
2023/10/27 01:08:03;;;;;;;7.35;2.05;;;;;;;;;;5079335;28;20032;-85
2023/10/27 01:10:48;;;;;;;4.25;1.90;;;;;;;;;;5085849;28;20040;-85
2023/10/27 01:13:33;;;;;;;7.45;1.77;;;;;;;;;;5085670;28;20039;-86
2023/10/27 01:16:18;;;;;;;5.40;1.92;;;;;;;;;;5085247;28;20020;-86
2023/10/27 01:19:04;;;;;;;5.43;2.58;;;;;;;;;;5088983;28;20040;-85
2023/10/27 01:21:49;;;;;;;7.78;2.03;;;;;;;;;;5087792;28;20020;-87
2023/10/27 01:24:34;;;;;;;5.75;1.83;;;;;;;;;;5086093;28;20116;-88
2023/10/27 01:27:19;;;;;;;5.80;1.90;;;;;;;;;;5083772;28;20241;-85
2023/10/27 01:30:05;;;;;;;3.00;1.30;;;;;;;;;;5078552;28;20020;-85
2023/10/27 01:32:50;;;;;;;3.60;1.58;;;;;;;;;;5081692;28;20465;-87
2023/10/27 01:35:35;;;;;;;5.85;1.90;;;;;;;;;;5090674;28;20378;-88
2023/10/27 01:38:21;;;;;;;6.47;1.42;;;;;;;;;;5084093;28;20541;-87
2023/10/27 01:41:06;;;;;;;2.50;1.52;;;;;;;;;;5078163;28;20031;-87
2023/10/27 01:43:51;;;;;;;3.92;1.50;;;;;;;;;;5084918;28;20067;-87
2023/10/27 01:46:36;;;;;;;5.55;1.70;;;;;;;;;;5076161;28;20016;-86
2023/10/27 01:49:22;;;;;;;3.25;1.38;;;;;;;;;;5088094;28;20019;-86
2023/10/27 01:52:10;;;;;;;3.42;1.35;;;;;;;;;;5084880;28;20475;-86
2023/10/27 01:54:57;;;;;;;4.75;1.45;;;;;;;;;;5079397;28;20797;-87
2023/10/27 01:57:42;;;;;;;7.32;2.25;;;;;;;;;;5074602;28;20109;-86
2023/10/27 02:00:28;;;;;;;4.90;1.58;;;;;;;;;;5078022;28;20023;-86
2023/10/27 02:03:13;;;;;;;4.15;2.08;;;;;;;;;;5072457;28;20033;-86
2023/10/27 02:05:58;;;;;;;4.70;2.00;;;;;;;;;;5071602;28;20135;-86
2023/10/27 02:08:43;;;;;;;5.15;1.70;;;;;;;;;;5090280;28;20040;-85
2023/10/27 02:11:29;;;;;;;4.05;1.80;;;;;;;;;;5058632;28;20281;-84
2023/10/27 02:14:14;;;;;;;5.53;1.98;;;;;;;;;;5066180;28;20498;-84
2023/10/27 02:16:59;;;;;;;9.65;2.10;;;;;;;;;;5058089;28;20072;-85
2023/10/27 02:19:45;;;;;;;4.28;1.80;;;;;;;;;;5071109;28;20778;-85
2023/10/27 02:22:30;;;;;;;3.40;1.35;;;;;;;;;;5064676;28;20035;-85
2023/10/27 02:25:15;;;;;;;4.35;1.73;;;;;;;;;;5075971;28;20035;-86
2023/10/27 02:28:00;;;;;;;4.22;1.38;;;;;;;;;;5048036;28;20025;-87
2023/10/27 02:30:46;;;;;;;3.85;1.25;;;;;;;;;;5072797;28;20032;-87
2023/10/27 02:33:31;;;;;;;3.58;1.65;;;;;;;;;;5063384;28;20425;-87
2023/10/27 02:36:16;;;;;;;2.67;1.20;;;;;;;;;;5075572;28;20432;-86
2023/10/27 02:39:01;;;;;;;2.67;1.23;;;;;;;;;;5060171;28;20020;-85
2023/10/27 02:41:47;;;;;;;4.85;1.50;;;;;;;;;;5070681;28;20020;-86
2023/10/27 02:44:32;;;;;;;3.88;1.27;;;;;;;;;;5064791;28;20529;-86
2023/10/27 02:47:17;;;;;;;8.88;2.28;;;;;;;;;;5070141;28;20493;-87
2023/10/27 02:50:02;;;;;;;5.38;1.85;;;;;;;;;;5083909;28;20111;-85
2023/10/27 02:52:47;;;;;;;9.43;2.38;;;;;;;;;;5081931;28;20054;-85
2023/10/27 02:55:33;;;;;;;5.03;2.25;;;;;;;;;;5098175;28;20059;-85
2023/10/27 02:58:19;;;;;;;4.43;1.70;;;;;;;;;;5100940;28;20023;-84
2023/10/27 03:01:07;;;;;;;3.35;1.40;;;;;;;;;;5086317;28;20020;-86
2023/10/27 03:03:53;;;;;;;5.60;1.47;;;;;;;;;;5092517;28;20084;-85
2023/10/27 03:06:38;;;;;;;2.55;1.25;;;;;;;;;;5069624;28;20040;-86
2023/10/27 03:09:23;;;;;;;7.25;1.77;;;;;;;;;;5057256;28;20110;-86
2023/10/27 03:12:08;;;;;;;4.10;1.55;;;;;;;;;;5072634;28;20032;-87
2023/10/27 03:14:53;;;;;;;2.15;1.42;;;;;;;;;;5082673;28;20040;-85
2023/10/27 03:17:39;;;;;;;2.47;1.33;;;;;;;;;;5074418;28;20033;-85
2023/10/27 03:20:24;;;;;;;5.28;1.90;;;;;;;;;;5080122;28;20028;-86
2023/10/27 03:23:10;;;;;;;6.65;1.55;;;;;;;;;;5074989;28;20031;-86
2023/10/27 03:26:04;;;;;;;6.07;1.50;;;;;;;;;;5074409;28;20015;-86
2023/10/27 03:28:50;;;;;;;3.92;1.63;;;;;;;;;;5072886;28;20077;-86
2023/10/27 03:31:35;;;;;;;6.82;1.30;;;;;;;;;;5070747;28;20024;-87
2023/10/27 03:34:20;;;;;;;4.82;1.02;;;;;;;;;;5083209;28;20511;-87
2023/10/27 03:37:05;;;;;;;3.80;1.60;;;;;;;;;;5079734;28;20070;-87
2023/10/27 03:39:51;;;;;;;4.35;1.27;;;;;;;;;;5076195;28;20028;-87
2023/10/27 03:42:36;;;;;;;4.22;1.95;;;;;;;;;;5078520;28;20047;-87
2023/10/27 03:45:21;;;;;;;4.72;1.40;;;;;;;;;;5071932;28;20040;-87
2023/10/27 03:48:06;;;;;;;6.25;2.80;;;;;;;;;;5076390;28;20042;-88
2023/10/27 03:50:52;;;;;;;6.72;1.88;;;;;;;;;;5072869;28;20048;-88
2023/10/27 03:53:38;;;;;;;3.22;1.30;;;;;;;;;;5074200;28;20036;-88
2023/10/27 03:56:23;;;;;;;3.40;1.52;;;;;;;;;;5069450;28;20016;-86
2023/10/27 03:59:10;;;;;;;4.00;1.30;;;;;;;;;;5078172;28;20031;-85
2023/10/27 04:01:55;;;;;;;2.75;1.63;;;;;;;;;;5073474;28;20035;-86
2023/10/27 04:04:40;;;;;;;4.50;1.35;;;;;;;;;;5066801;28;20027;-87
2023/10/27 04:07:26;;;;;;;4.38;1.58;;;;;;;;;;5072842;28;20462;-87
2023/10/27 04:10:11;;;;;;;2.72;1.70;;;;;;;;;;5077465;28;20089;-87
2023/10/27 04:12:56;;;;;;;2.00;1.20;;;;;;;;;;5084254;28;20028;-86
2023/10/27 04:15:44;;;;;;;3.25;1.88;;;;;;;;;;5088826;28;20466;-87
2023/10/27 04:18:29;;;;;;;4.68;1.45;;;;;;;;;;5081098;28;20028;-88
2023/10/27 04:21:15;;;;;;;4.60;1.80;;;;;;;;;;5082645;28;20031;-89
2023/10/27 04:24:00;;;;;;;4.55;1.70;;;;;;;;;;5071915;28;20024;-89
2023/10/27 04:26:45;;;;;;;3.58;1.50;;;;;;;;;;5068088;28;20021;-86
2023/10/27 04:29:31;;;;;;;2.97;1.52;;;;;;;;;;5067709;28;20165;-86
2023/10/27 04:32:18;;;;;;;3.67;1.25;;;;;;;;;;5078983;28;20029;-87
2023/10/27 04:35:03;;;;;;;2.65;1.48;;;;;;;;;;5069819;28;20047;-87
2023/10/27 04:37:50;;;;;;;3.35;1.40;;;;;;;;;;5073578;28;20394;-86
2023/10/27 04:40:35;;;;;;;4.85;1.23;;;;;;;;;;5067801;28;20029;-87
2023/10/27 04:43:21;;;;;;;6.82;1.35;;;;;;;;;;5058858;28;20044;-86
2023/10/27 04:46:07;;;;;;;4.30;1.48;;;;;;;;;;5076415;28;20504;-87
2023/10/27 04:48:53;;;;;;;2.53;1.27;;;;;;;;;;5074780;28;20040;-87
2023/10/27 04:51:38;;;;;;;3.72;1.45;;;;;;;;;;5055548;28;20032;-87
2023/10/27 04:54:23;;;;;;;3.92;1.20;;;;;;;;;;5076414;28;20071;-87
2023/10/27 04:57:09;;;;;;;6.25;1.35;;;;;;;;;;5068605;28;20020;-89
2023/10/27 04:59:56;;;;;;;4.82;1.30;;;;;;;;;;5067955;28;20028;-88
2023/10/27 05:02:41;;;;;;;6.15;1.95;;;;;;;;;;5071715;28;20055;-87
2023/10/27 05:05:26;;;;;;;3.17;1.10;;;;;;;;;;5091973;28;20111;-88
2023/10/27 05:08:11;;;;;;;4.45;1.65;;;;;;;;;;5091420;28;20024;-87
2023/10/27 05:10:57;;;;;;;3.78;0.98;;;;;;;;;;5072947;28;20048;-86
2023/10/27 05:13:42;;;;;;;3.05;1.52;;;;;;;;;;5086400;28;20039;-86
2023/10/27 05:16:27;;;;;;;3.95;1.63;;;;;;;;;;5086683;28;20020;-87
2023/10/27 05:19:12;;;;;;;3.80;1.50;;;;;;;;;;5091222;28;20027;-88
2023/10/27 05:21:57;;;;;;;3.42;1.27;;;;;;;;;;5092029;28;20035;-88
2023/10/27 05:24:43;;;;;;;3.53;1.27;;;;;;;;;;5073976;28;20050;-87
2023/10/27 05:27:28;;;;;;;4.20;1.85;;;;;;;;;;5091020;28;20154;-87
2023/10/27 05:30:13;;;;;;;2.55;1.38;;;;;;;;;;5078370;28;20020;-87
2023/10/27 05:32:59;;;;;;;6.68;1.45;;;;;;;;;;5076594;28;20050;-89
2023/10/27 05:35:44;;;;;;;3.50;1.10;;;;;;;;;;5070579;28;20029;-86
2023/10/27 05:38:29;;;;;;;6.40;1.10;;;;;;;;;;5091437;28;20071;-90
2023/10/27 05:41:15;;;;;;;3.17;1.73;;;;;;;;;;5091943;28;20058;-87
2023/10/27 05:44:03;;;;;;;2.97;1.00;;;;;;;;;;5090634;28;20039;-88
2023/10/27 05:46:48;;;;;;;4.68;1.30;;;;;;;;;;5079296;28;20123;-91
2023/10/27 05:49:33;;;;;;;2.80;1.10;;;;;;;;;;5074644;28;20024;-87
2023/10/27 05:52:19;;;;;;;2.38;1.00;;;;;;;;;;5084082;28;20020;-88
2023/10/27 05:55:04;;;;;;;3.10;1.23;;;;;;;;;;5076391;28;20020;-90
2023/10/27 05:57:49;;;;;;;2.80;1.00;;;;;;;;;;5089006;28;20378;-89
2023/10/27 06:00:35;;;;;;;3.03;1.30;;;;;;;;;;5085976;28;20024;-89
2023/10/27 06:03:20;;;;;;;7.63;1.75;;;;;;;;;;5076297;28;20046;-90
2023/10/27 06:06:05;;;;;;;5.30;1.73;;;;;;;;;;5089910;28;20521;-88
2023/10/27 06:08:51;;;;;;;3.72;1.65;;;;;;;;;;5086901;28;20112;-88
2023/10/27 06:11:36;;;;;;;6.72;1.55;;;;;;;;;;5065612;28;20142;-91
2023/10/27 06:14:21;;;;;;;4.82;1.48;;;;;;;;;;5068525;28;20092;-89
2023/10/27 06:17:08;;;;;;;4.07;1.83;;;;;;;;;;5074457;28;20016;-87
2023/10/27 06:19:53;;;;;;;2.08;1.58;;;;;;;;;;5079806;28;20035;-90
2023/10/27 06:22:39;;;;;;;3.13;1.45;;;;;;;;;;5064698;28;20032;-90
2023/10/27 06:25:25;;;;;;;2.20;1.25;;;;;;;;;;5063391;28;20028;-91
2023/10/27 06:28:10;;;;;;;3.70;1.50;;;;;;;;;;5067393;28;20044;-91
2023/10/27 06:30:56;;;;;;;4.75;1.33;;;;;;;;;;5063203;28;20488;-90
2023/10/27 06:33:41;;;;;;;3.13;1.48;;;;;;;;;;5071194;28;20028;-87
2023/10/27 06:36:28;;;;;;;3.90;1.50;;;;;;;;;;5067028;28;20077;-88
2023/10/27 06:39:13;;;;;;;4.22;1.13;;;;;;;;;;5064387;28;20036;-87
2023/10/27 06:41:58;;;;;;;2.25;1.42;;;;;;;;;;5068013;28;20294;-87
2023/10/27 06:44:44;;;;;;;1.48;1.10;;;;;;;;;;5067771;28;20032;-86
2023/10/27 06:47:29;;;;;;;2.25;1.27;;;;;;;;;;5057235;28;20024;-89
2023/10/27 06:50:15;;;;;;;3.67;1.48;;;;;;;;;;5067676;28;20029;-91
2023/10/27 06:53:01;;;;;;;3.28;1.25;;;;;;;;;;5082148;28;20115;-91
2023/10/27 06:55:46;;;;;;;2.20;1.20;;;;;;;;;;5064920;28;20380;-89
2023/10/27 06:58:31;;;;;;;3.63;1.10;;;;;;;;;;5067812;28;20589;-91
2023/10/27 07:01:16;;;;;;;3.85;1.08;;;;;;;;;;5067652;28;20051;-88
2023/10/27 07:04:02;;;;;;;3.70;0.98;;;;;;;;;;5069611;28;20060;-90
2023/10/27 07:06:47;;;;;;;1.00;0.90;;;;;;;;;;5066620;28;20024;-89
2023/10/27 07:09:32;;;;;;;1.17;0.98;;;;;;;;;;5078709;28;20051;-87
2023/10/27 07:12:18;;;;;;;3.22;1.17;;;;;;;;;;5081397;28;20100;-89
2023/10/27 07:15:03;;;;;;;1.88;1.30;;;;;;;;;;5053627;28;20032;-87
2023/10/27 07:17:48;;;;;;;2.42;0.88;;;;;;;;;;5047119;28;20435;-87
2023/10/27 07:20:37;;;;;;;9.00;1.80;;;;;;;;;;5048076;28;20449;-86
2023/10/27 07:23:23;;;;;;;2.17;1.00;;;;;;;;;;5048421;28;20530;-88
2023/10/27 07:26:12;;;;;;;1.90;1.20;;;;;;;;;;5050855;28;20478;-88
2023/10/27 07:28:57;;;;;;;1.23;0.90;;;;;;;;;;5049464;28;20024;-88
2023/10/27 07:31:43;;;;;;;1.83;1.23;;;;;;;;;;5047088;28;20740;-89
2023/10/27 07:34:28;;;;;;;1.00;0.80;;;;;;;;;;5049558;28;20086;-90
2023/10/27 07:37:14;;;;;;;1.05;0.68;;;;;;;;;;5050511;28;20036;-88
2023/10/27 07:39:59;;;;;;;2.58;1.08;;;;;;;;;;5047291;28;20059;-88
2023/10/27 07:42:44;;;;;;;3.28;0.85;;;;;;;;;;5062429;28;20091;-88
2023/10/27 07:45:29;;;;;;;2.75;1.00;;;;;;;;;;5076577;28;20043;-88
2023/10/27 07:48:15;;;;;;;3.50;0.70;;;;;;;;;;5061788;28;20059;-89
2023/10/27 07:51:00;;;;;;;1.13;0.82;;;;;;;;;;5081807;28;20382;-89
2023/10/27 07:53:46;;;;;;;1.38;0.93;;;;;;;;;;5083209;28;20032;-88
2023/10/27 07:56:32;;;;;;;2.03;0.75;;;;;;;;;;5077973;28;20020;-89
2023/10/27 07:59:18;;;;;;;3.83;0.80;;;;;;;;;;5085069;28;20525;-88
2023/10/27 08:02:04;;;;;;;1.67;0.80;;;;;;;;;;5083135;28;20532;-89
2023/10/27 08:04:49;;;;;;;0.77;0.70;;;;;;;;;;5079245;28;20042;-88
2023/10/27 08:07:35;;;;;;;0.98;0.60;;;;;;;;;;5075605;28;20054;-90
2023/10/27 08:10:21;;;;;;;1.50;0.73;;;;;;;;;;5077154;28;20113;-90
2023/10/27 08:13:06;;;;;;;0.75;0.60;;;;;;;;;;5082412;28;20023;-90
2023/10/27 08:15:51;;;;;;;0.57;0.52;;;;;;;;;;5081259;28;20587;-90
2023/10/27 08:18:36;;;;;;;1.05;0.47;;;;;;;;;;5079769;28;20076;-90
2023/10/27 08:21:21;;;;;;;0.60;0.60;;;;;;;;;;5075704;28;20029;-89
2023/10/27 08:24:07;;;;;;;1.10;0.60;;;;;;;;;;5090499;28;20047;-90
2023/10/27 08:26:52;;;;;;;1.00;0.90;;;;;;;;;;5074225;28;20027;-91
2023/10/27 08:29:37;;;;;;;0.60;0.60;;;;;;;;;;5074450;28;20025;-90
2023/10/27 08:32:26;;;;;;;0.63;0.50;;;;;;;;;;5085804;28;20028;-91
2023/10/27 08:35:12;;;;;;;2.50;0.70;;;;;;;;;;5086499;28;20049;-91
2023/10/27 08:37:57;;;;;;;0.60;0.60;;;;;;;;;;5081518;28;20032;-90
2023/10/27 08:40:42;;;;;;;0.63;0.50;;;;;;;;;;5093868;28;20128;-89
2023/10/27 08:43:28;;;;;;;0.80;0.50;;;;;;;;;;5088756;28;20433;-87
2023/10/27 08:46:13;;;;;;;1.00;0.60;;;;;;;;;;5080254;28;20024;-88
2023/10/27 08:48:58;;;;;;;2.17;0.80;;;;;;;;;;5082975;28;20028;-89
2023/10/27 08:51:43;;;;;;;2.17;1.08;;;;;;;;;;5081775;28;20031;-87
2023/10/27 08:54:30;;;;;;;0.52;0.50;;;;;;;;;;5080741;28;20017;-89
2023/10/27 08:57:15;;;;;;;1.52;0.63;;;;;;;;;;5090641;28;20796;-87
2023/10/27 09:00:00;;;;;;;1.90;1.05;;;;;;;;;;5090027;28;20488;-89
2023/10/27 09:02:45;;;;;;;0.98;0.60;;;;;;;;;;5090881;28;20111;-90
2023/10/27 09:05:32;;;;;;;0.57;0.50;;;;;;;;;;5085804;28;20115;-90
2023/10/27 09:08:18;;;;;;;0.65;0.50;;;;;;;;;;5098222;28;20054;-88
2023/10/27 09:11:03;;;;;;;2.22;0.70;;;;;;;;;;5071615;28;20089;-88
2023/10/27 09:13:48;;;;;;;0.40;0.40;;;;;;;;;;5069437;28;20028;-85
2023/10/27 09:16:34;;;;;;;0.52;0.50;;;;;;;;;;5066739;28;20023;-86
2023/10/27 09:19:26;;;;;;;2.17;0.50;;;;;;;;;;5069366;28;20024;-89
2023/10/27 09:22:15;;;;;;;0.57;0.50;;;;;;;;;;5070665;28;20474;-91
2023/10/27 09:25:14;;;;;;;0.75;0.70;;;;;;;;;;5066345;28;20028;-89
2023/10/27 09:28:00;;;;;;;0.60;0.60;;;;;;;;;;5065349;28;20060;-89
2023/10/27 09:30:45;;;;;;;1.88;0.75;;;;;;;;;;5067619;28;20697;-87
2023/10/27 09:33:31;;;;;;;1.10;0.70;;;;;;;;;;5068922;28;20059;-87
2023/10/27 09:36:16;;;;;;;0.80;0.65;;;;;;;;;;5075136;28;20550;-88
2023/10/27 09:39:04;;;;;;;0.70;0.70;;;;;;;;;;5066569;28;20027;-88
2023/10/27 09:41:58;;;;;;;1.40;0.65;;;;;;;;;;5068558;28;20021;-92
2023/10/27 09:44:55;;;;;;;2.20;0.90;;;;;;;;;;5077075;28;20036;-90
2023/10/27 09:47:47;;;;;;;2.10;1.17;;;;;;;;;;5069843;28;20293;-91
2023/10/27 09:50:32;;;;;;;0.65;0.65;;;;;;;;;;5065039;28;20371;-89
2023/10/27 09:53:18;;;;;;;0.60;0.60;;;;;;;;;;5069103;28;20111;-88
2023/10/27 09:56:03;;;;;;;1.55;0.70;;;;;;;;;;5064914;28;20467;-88
2023/10/27 09:58:49;;;;;;;1.98;0.60;;;;;;;;;;5070235;28;20020;-87
2023/10/27 10:01:34;;;;;;;1.00;0.70;;;;;;;;;;5069305;28;20034;-88
2023/10/27 10:04:46;;;;;;;2.05;0.75;;;;;;;;;;5070435;28;20481;-88
2023/10/27 10:07:35;;;;;;;1.75;0.75;;;;;;;;;;5041186;28;20036;-90
2023/10/27 10:10:22;;;;;;;2.63;1.20;;;;;;;;;;5079276;28;20104;-89
2023/10/27 10:13:16;;;;;;;1.45;0.73;;;;;;;;;;5069588;28;20032;-89
2023/10/27 10:16:01;;;;;;;1.80;1.23;;;;;;;;;;5082266;28;20028;-88
2023/10/27 10:18:50;;;;;;;2.25;1.35;;;;;;;;;;5083369;28;20024;-89
2023/10/27 10:21:44;;;;;;;2.30;0.97;;;;;;;;;;5079767;28;20107;-89
2023/10/27 10:24:29;;;;;;;2.22;0.88;;;;;;;;;;5080256;28;20417;-88
2023/10/27 10:27:15;;;;;;;3.25;0.80;;;;;;;;;;5078353;28;20370;-88
2023/10/27 10:30:20;;;;;;;3.22;1.25;;;;;;;;;;5078190;28;20044;-87
2023/10/27 10:33:11;;;;;;;5.10;1.05;;;;;;;;;;5078105;28;20032;-87
2023/10/27 10:36:18;;;;;;;3.67;1.40;;;;;;;;;;5080186;28;20086;-82
2023/10/27 10:39:04;;;;;;;3.33;1.40;;;;;;;;;;5080937;28;20044;-82
2023/10/27 10:41:58;;;;;;;5.88;1.00;;;;;;;;;;5079653;28;20043;-82
2023/10/27 10:44:43;;;;;;;3.50;1.05;;;;;;;;;;5091997;28;20024;-82
2023/10/27 10:47:29;;;;;;;6.00;1.42;;;;;;;;;;5095319;28;20024;-83
2023/10/27 10:50:25;;;;;;;3.55;1.05;;;;;;;;;;5085741;28;20104;-81
2023/10/27 10:53:25;;;;;;;4.43;0.98;;;;;;;;;;5095626;28;20016;-81
2023/10/27 10:56:10;;;;;;;10.25;1.50;;;;;;;;;;5112534;28;20032;-87
2023/10/27 10:58:56;;;;;;;2.47;0.95;;;;;;;;;;5091196;28;20065;-86
2023/10/27 11:01:41;;;;;;;2.78;1.00;;;;;;;;;;5064216;28;20115;-86
2023/10/27 11:04:27;;;;;;;4.57;1.00;;;;;;;;;;5085248;28;20085;-86
2023/10/27 11:07:14;;;;;;;2.33;0.90;;;;;;;;;;5086708;28;20016;-85
2023/10/27 11:10:15;;;;;;;4.60;1.75;;;;;;;;;;5086158;28;20116;-85
2023/10/27 11:13:04;;;;;;;4.20;1.38;;;;;;;;;;5080547;28;20100;-84
2023/10/27 11:15:50;;;;;;;2.60;1.50;;;;;;;;;;5083937;28;20065;-87
2023/10/27 11:18:36;;;;;;;1.95;0.90;;;;;;;;;;5080742;28;20081;-85
2023/10/27 11:21:22;;;;;;;5.22;1.13;;;;;;;;;;5080956;28;20032;-85
2023/10/27 11:24:08;;;;;;;2.50;1.08;;;;;;;;;;5076095;28;20024;-85
2023/10/27 11:26:53;;;;;;;4.15;1.27;;;;;;;;;;5082347;28;20027;-86
2023/10/27 11:29:38;;;;;;;2.47;1.00;;;;;;;;;;5080388;28;20035;-86
2023/10/27 11:32:26;;;;;;;3.67;1.10;;;;;;;;;;5081733;28;20046;-86
2023/10/27 11:35:20;;;;;;;5.20;1.60;;;;;;;;;;5070136;28;20445;-84
2023/10/27 11:38:07;;;;;;;2.60;0.90;;;;;;;;;;5082275;28;20055;-85
2023/10/27 11:40:53;;;;;;;4.50;1.13;;;;;;;;;;5069542;28;20553;-85
2023/10/27 11:43:41;;;;;;;3.30;1.30;;;;;;;;;;5071773;28;20510;-85
2023/10/27 11:46:26;;;;;;;3.08;1.48;;;;;;;;;;5079887;28;20070;-86
2023/10/27 11:49:12;;;;;;;3.40;1.17;;;;;;;;;;5078728;28;20043;-87
2023/10/27 11:51:57;;;;;;;2.78;1.33;;;;;;;;;;5076468;28;20017;-87
2023/10/27 11:54:42;;;;;;;5.97;1.80;;;;;;;;;;5079437;28;20032;-85
2023/10/27 11:57:28;;;;;;;3.83;1.20;;;;;;;;;;5083319;28;20054;-85
2023/10/27 12:00:14;;;;;;;3.95;1.00;;;;;;;;;;5077878;28;20023;-87
2023/10/27 12:03:00;;;;;;;2.58;1.13;;;;;;;;;;5083215;28;20482;-83
2023/10/27 12:05:45;;;;;;;2.35;1.20;;;;;;;;;;5077087;28;20032;-85
2023/10/27 12:08:34;;;;;;;1.75;0.90;;;;;;;;;;5364643;22;20000;-88
2023/10/27 12:15:33;;;;;;;3.03;1.13;;;;;;;;;;5024835;28;20144;-92
2023/10/27 12:18:21;;;;;;;2.08;0.90;;;;;;;;;;5050251;28;20032;-89
2023/10/27 12:21:07;;;;;;;1.77;1.27;;;;;;;;;;5046935;28;20040;-90
2023/10/27 12:23:55;;;;;;;4.38;1.33;;;;;;;;;;5049246;28;20643;-91
2023/10/27 12:26:40;;;;;;;3.25;1.17;;;;;;;;;;5057218;28;20029;-89
2023/10/27 12:29:26;;;;;;;3.67;1.40;;;;;;;;;;5036860;28;20096;-90
2023/10/27 12:32:12;;;;;;;2.13;1.00;;;;;;;;;;5046890;28;20025;-87
2023/10/27 12:34:57;;;;;;;2.65;1.05;;;;;;;;;;5046725;28;20029;-86
2023/10/27 12:37:45;;;;;;;3.25;1.00;;;;;;;;;;5043838;28;20100;-86
2023/10/27 12:40:31;;;;;;;4.40;1.45;;;;;;;;;;5035616;28;20040;-87
2023/10/27 12:43:16;;;;;;;3.28;0.90;;;;;;;;;;5045457;28;20032;-85
2023/10/27 12:46:02;;;;;;;2.60;0.98;;;;;;;;;;5047538;28;20056;-87
2023/10/27 12:48:48;;;;;;;1.63;1.00;;;;;;;;;;5034814;28;20108;-85
2023/10/27 12:51:33;;;;;;;2.22;0.82;;;;;;;;;;5036297;28;20111;-84
2023/10/27 12:54:19;;;;;;;3.85;1.35;;;;;;;;;;5036502;28;20036;-83
2023/10/27 12:57:04;;;;;;;2.78;0.77;;;;;;;;;;5047607;28;20483;-85
2023/10/27 12:59:51;;;;;;;4.93;0.90;;;;;;;;;;5050976;28;20051;-86
2023/10/27 13:02:36;;;;;;;4.57;0.90;;;;;;;;;;5046099;28;20505;-86
2023/10/27 13:05:22;;;;;;;6.22;1.08;;;;;;;;;;5038021;28;20687;-90
2023/10/27 13:08:10;;;;;;;3.67;1.02;;;;;;;;;;5040156;28;20111;-87
2023/10/27 13:10:56;;;;;;;2.92;0.88;;;;;;;;;;5061173;28;20025;-87
2023/10/27 13:13:45;;;;;;;1.50;0.85;;;;;;;;;;5063730;28;20045;-90
2023/10/27 13:16:30;;;;;;;2.05;1.35;;;;;;;;;;5074150;28;20033;-92
2023/10/27 13:19:15;;;;;;;2.97;1.00;;;;;;;;;;5076784;28;20029;-90
2023/10/27 13:22:01;;;;;;;2.55;0.90;;;;;;;;;;5083125;28;20021;-90
2023/10/27 13:24:46;;;;;;;2.97;0.80;;;;;;;;;;5086564;28;20123;-88
2023/10/27 13:27:32;;;;;;;3.08;1.30;;;;;;;;;;5069922;28;21286;-88
2023/10/27 13:30:17;;;;;;;4.05;1.10;;;;;;;;;;5044604;28;20056;-90
2023/10/27 13:33:03;;;;;;;3.70;1.25;;;;;;;;;;5064814;28;20112;-87
2023/10/27 13:35:48;;;;;;;7.57;1.33;;;;;;;;;;5072001;28;20063;-87
2023/10/27 13:38:33;;;;;;;1.65;0.80;;;;;;;;;;5065782;28;20056;-87
2023/10/27 13:41:18;;;;;;;2.60;0.90;;;;;;;;;;5067830;28;20024;-89
2023/10/27 13:44:07;;;;;;;2.95;0.88;;;;;;;;;;5051976;28;20059;-93
2023/10/27 13:46:53;;;;;;;2.80;1.08;;;;;;;;;;5066524;28;20028;-91
2023/10/27 13:49:38;;;;;;;3.03;1.17;;;;;;;;;;5056621;28;20066;-94
2023/10/27 13:52:23;;;;;;;3.10;0.90;;;;;;;;;;5075649;28;20105;-90
2023/10/27 13:55:09;;;;;;;2.90;1.00;;;;;;;;;;5049463;28;20025;-89
2023/10/27 13:57:55;;;;;;;4.20;1.35;;;;;;;;;;5069558;28;20068;-89
2023/10/27 14:00:41;;;;;;;4.25;1.00;;;;;;;;;;5071976;28;20119;-91
2023/10/27 14:03:26;;;;;;;2.30;1.02;;;;;;;;;;5072388;28;20024;-90
2023/10/27 14:06:13;;;;;;;2.75;1.38;;;;;;;;;;5070689;28;20028;-88
2023/10/27 14:08:58;;;;;;;1.50;0.90;;;;;;;;;;5072993;28;20066;-91
2023/10/27 14:11:45;;;;;;;1.48;0.80;;;;;;;;;;5063356;28;20447;-90
2023/10/27 14:14:30;;;;;;;1.80;0.88;;;;;;;;;;5068946;28;20728;-91
2023/10/27 14:17:15;;;;;;;1.35;0.77;;;;;;;;;;5068971;28;20031;-87
2023/10/27 14:20:01;;;;;;;3.30;0.80;;;;;;;;;;5069773;28;20762;-87
2023/10/27 14:22:46;;;;;;;2.30;0.80;;;;;;;;;;5075031;28;20135;-90
2023/10/27 14:25:36;;;;;;;2.55;0.98;;;;;;;;;;5061143;28;20085;-90
2023/10/27 14:28:21;;;;;;;2.78;0.93;;;;;;;;;;5071253;28;20106;-87
2023/10/27 14:31:09;;;;;;;2.88;1.83;;;;;;;;;;5074978;28;20028;-88
2023/10/27 14:33:54;;;;;;;4.25;1.17;;;;;;;;;;5063880;28;20024;-86
2023/10/27 14:36:39;;;;;;;9.48;2.20;;;;;;;;;;5050731;28;20082;-88
2023/10/27 14:39:25;;;;;;;2.08;1.10;;;;;;;;;;5069124;28;20028;-87
2023/10/27 14:42:10;;;;;;;2.83;1.10;;;;;;;;;;5068388;28;20034;-87
2023/10/27 14:44:55;;;;;;;2.60;0.90;;;;;;;;;;5055767;28;20020;-89
2023/10/27 14:47:41;;;;;;;1.83;1.08;;;;;;;;;;5042981;28;20035;-89
2023/10/27 14:50:26;;;;;;;2.97;1.33;;;;;;;;;;5037080;28;20032;-87
2023/10/27 14:53:11;;;;;;;1.95;1.00;;;;;;;;;;5047943;28;20063;-88
2023/10/27 14:56:00;;;;;;;3.42;1.50;;;;;;;;;;5042914;28;20032;-87
2023/10/27 14:58:46;;;;;;;1.48;0.82;;;;;;;;;;5068693;28;20106;-87
2023/10/27 15:01:31;;;;;;;2.65;1.00;;;;;;;;;;5072427;28;20047;-88
2023/10/27 15:04:17;;;;;;;1.90;0.90;;;;;;;;;;5086306;28;20024;-88
2023/10/27 15:07:02;;;;;;;1.33;1.00;;;;;;;;;;5078215;28;20017;-88
2023/10/27 15:09:48;;;;;;;1.17;0.70;;;;;;;;;;5086483;28;20213;-88
2023/10/27 15:12:33;;;;;;;2.35;0.88;;;;;;;;;;5087671;28;20032;-88
2023/10/27 15:15:18;;;;;;;1.10;0.80;;;;;;;;;;5092385;28;20013;-89
2023/10/27 15:18:03;;;;;;;1.70;1.10;;;;;;;;;;5090286;28;20107;-88
2023/10/27 15:20:56;;;;;;;1.33;1.15;;;;;;;;;;5085950;28;20028;-86
2023/10/27 15:23:41;;;;;;;0.93;0.77;;;;;;;;;;5088136;28;20040;-86
2023/10/27 15:26:27;;;;;;;1.08;0.75;;;;;;;;;;5076663;28;20030;-88
2023/10/27 15:29:12;;;;;;;4.22;1.02;;;;;;;;;;5084224;28;20040;-87
2023/10/27 15:31:58;;;;;;;1.48;0.80;;;;;;;;;;5052153;28;20473;-86
2023/10/27 15:34:43;;;;;;;4.47;0.95;;;;;;;;;;5054631;28;20028;-86
2023/10/27 15:37:28;;;;;;;3.42;1.20;;;;;;;;;;5066822;28;20420;-87
2023/10/27 15:40:13;;;;;;;1.85;0.98;;;;;;;;;;5074874;28;20031;-86
2023/10/27 15:42:59;;;;;;;2.75;0.93;;;;;;;;;;5068275;28;20031;-87
2023/10/27 15:45:44;;;;;;;1.98;0.80;;;;;;;;;;5064295;28;20042;-89
2023/10/27 15:48:31;;;;;;;2.17;1.10;;;;;;;;;;5061715;28;20081;-85
2023/10/27 15:51:18;;;;;;;3.65;1.05;;;;;;;;;;5064410;28;20043;-86
2023/10/27 15:54:03;;;;;;;1.40;0.75;;;;;;;;;;5063396;28;20059;-86
2023/10/27 15:56:48;;;;;;;1.05;0.70;;;;;;;;;;5073412;28;20063;-84
2023/10/27 15:59:36;;;;;;;2.95;0.88;;;;;;;;;;5060375;28;20017;-86
2023/10/27 16:02:21;;;;;;;1.77;0.90;;;;;;;;;;5067907;28;20069;-87
2023/10/27 16:05:07;;;;;;;3.45;1.20;;;;;;;;;;5067886;28;20519;-86
2023/10/27 16:07:52;;;;;;;1.13;0.90;;;;;;;;;;5059807;28;20034;-86
2023/10/27 16:10:37;;;;;;;2.00;1.05;;;;;;;;;;5066527;28;20060;-86
2023/10/27 16:13:23;;;;;;;3.42;1.33;;;;;;;;;;5055121;28;20076;-86
2023/10/27 16:16:08;;;;;;;1.65;0.93;;;;;;;;;;5069325;28;20070;-87
2023/10/27 16:18:53;;;;;;;3.75;0.90;;;;;;;;;;5059403;28;20056;-86
2023/10/27 16:21:38;;;;;;;3.17;1.13;;;;;;;;;;5051644;28;20107;-85
2023/10/27 16:24:23;;;;;;;2.40;0.85;;;;;;;;;;5062659;28;20033;-87
2023/10/27 16:27:10;;;;;;;1.17;0.90;;;;;;;;;;5052339;28;20379;-87
2023/10/27 16:29:55;;;;;;;3.83;0.90;;;;;;;;;;5064112;28;20009;-87
2023/10/27 16:32:40;;;;;;;5.32;1.10;;;;;;;;;;5073498;28;20482;-87
2023/10/27 16:35:26;;;;;;;2.92;1.20;;;;;;;;;;5021494;28;20499;-87
2023/10/27 16:38:11;;;;;;;3.40;1.50;;;;;;;;;;5042426;28;20025;-87
2023/10/27 16:40:57;;;;;;;4.63;1.30;;;;;;;;;;5033283;28;20115;-86